General Aviation Weather

Text Reports

Enter one or more of the following location identifiers separated by a space:

Zip Code, Four-Character ICAO or Three-Character IATA airport codes.

METAR - Aviation Routine Weather Report
KJEF - Jefferson City, Missouri
Updated at 1:36 PM GMT on November 27, 2014 (7:36 AM CST):
SPECI KJEF 271336Z 30007KT 8SM OVC015 M01/M04 A3049 RMK AO2 T10111039 $
TAF - Terminal Area Forecast
KJEF - Jefferson City, Missouri
Updated at 1:36 PM GMT on November 27, 2014 (7:36 AM CST):
No TAF is currently available for this location.
Decoded:
No decoded TAF is available.
PIREP - Pilot Weather Report
KJEF - Jefferson City, Missouri
Updated at 1:36 PM GMT on November 27, 2014 (7:36 AM CST):
No PIREP is currently available for this location.
AIRMET - Airmens Meteorological Information
KJEF - Jefferson City, Missouri
Updated at 1:36 PM GMT on November 27, 2014 (7:36 AM CST):
No AIRMET is currently available for this location.
SIGMET - Significant Meteorological Information
KJEF - Jefferson City, Missouri
Updated at 1:36 PM GMT on November 27, 2014 (7:36 AM CST):
No SIGMET is currently available for this location.
NOTAM - Notice to Airmen
KJEF - Jefferson City, Missouri
Updated at 1:36 PM GMT on November 27, 2014 (7:36 AM CST):
No NOTAM is currently available for this location.
Forecast Area
KJEF - Jefferson City, Missouri
Updated at 1:36 PM GMT on November 27, 2014 (7:36 AM CST):
No NOTAM is currently available for this location.
Aviation Weather Maps